Time;durP1;ratioP1;P1;durP2;ratioP2;P2;SDS_P1;SDS_P2;PMS_P1;PMS_P2;Temp;Humidity;BMP_temperature;BMP_pressure;BME280_temperature;BME280_humidity;BME280_pressure;Samples;Min_cycle;Max_cycle;Signal;HPM_P1;HPM_P2
2024/02/25 00:01:50;;;;;;;;;2.75;2.00;;;;;8.11;81.14;99605.00;5066500;27;45263;-65
2024/02/25 00:04:15;;;;;;;;;3.00;2.00;;;;;8.10;81.01;99599.84;5064024;28;61957;-65
2024/02/25 00:06:44;;;;;;;;;8.50;5.00;;;;;8.07;81.06;99602.53;5075804;27;45457;-65
2024/02/25 00:09:11;;;;;;;;;3.00;2.00;;;;;8.05;81.11;99610.41;5070571;27;46178;-66
2024/02/25 00:11:36;;;;;;;;;5.50;5.00;;;;;7.99;81.09;99605.44;5075103;27;45862;-64
2024/02/25 00:14:01;;;;;;;;;5.00;2.75;;;;;7.93;81.12;99613.44;5071910;28;45619;-66
2024/02/25 00:16:27;;;;;;;;;6.00;5.00;;;;;7.88;81.29;99600.59;5066545;27;45500;-65
2024/02/25 00:18:52;;;;;;;;;10.75;7.75;;;;;7.85;81.37;99605.91;5070161;27;59198;-66
2024/02/25 00:21:17;;;;;;;;;3.25;2.50;;;;;7.79;81.78;99609.56;5077243;28;65082;-66
2024/02/25 00:23:43;;;;;;;;;5.50;3.00;;;;;7.78;81.72;99604.41;5091636;27;68266;-66
2024/02/25 00:26:09;;;;;;;;;3.00;3.00;;;;;7.76;81.67;99608.81;5073588;28;45620;-65
2024/02/25 00:28:35;;;;;;;;;6.00;3.00;;;;;7.73;81.83;99608.91;5071092;27;46184;-65
2024/02/25 00:31:00;;;;;;;;;3.75;3.00;;;;;7.69;81.88;99605.56;5064145;28;55834;-65
2024/02/25 00:33:25;;;;;;;;;4.00;2.00;;;;;7.69;81.99;99615.13;5071905;28;65001;-65
2024/02/25 00:35:51;;;;;;;;;2.75;2.75;;;;;7.67;81.94;99611.75;5063351;28;45516;-65
2024/02/25 00:38:16;;;;;;;;;2.00;2.00;;;;;7.65;82.06;99611.78;5078839;27;75714;-66
2024/02/25 00:40:41;;;;;;;;;3.00;2.00;;;;;7.59;82.20;99607.59;5080050;27;45435;-65
2024/02/25 00:43:07;;;;;;;;;2.50;1.00;;;;;7.57;82.19;99611.19;5059470;28;68293;-66
2024/02/25 00:45:32;;;;;;;;;2.50;2.00;;;;;7.55;82.24;99620.78;5072337;27;71898;-65
2024/02/25 00:47:57;;;;;;;;;4.00;3.00;;;;;7.54;82.24;99622.56;5068599;28;53629;-65
2024/02/25 00:50:23;;;;;;;;;3.00;2.00;;;;;7.53;82.42;99620.84;5077886;27;72788;-66
2024/02/25 00:52:48;;;;;;;;;3.25;2.50;;;;;7.51;82.46;99624.41;5069855;27;69500;-65
2024/02/25 00:55:13;;;;;;;;;2.75;2.75;;;;;7.51;82.65;99629.63;5065420;27;69979;-66
2024/02/25 00:57:39;;;;;;;;;2.75;1.25;;;;;7.50;82.54;99627.91;5061601;28;74562;-65
2024/02/25 01:00:07;;;;;;;;;3.00;2.00;;;;;7.46;82.60;99624.53;5072464;27;45928;-66
2024/02/25 01:02:32;;;;;;;;;3.50;2.00;;;;;7.45;82.76;99628.03;5079840;28;45366;-65
2024/02/25 01:04:57;;;;;;;;;3.50;2.00;;;;;7.43;82.66;99622.03;5078659;27;45445;-66
2024/02/25 01:07:23;;;;;;;;;2.50;2.00;;;;;7.43;82.73;99623.78;5069253;28;67284;-66
2024/02/25 01:09:48;;;;;;;;;3.75;2.75;;;;;7.41;82.83;99622.06;5076084;27;73314;-66
2024/02/25 01:12:14;;;;;;;;;3.00;2.00;;;;;7.40;83.12;99620.38;5067611;28;64850;-65
2024/02/25 01:14:41;;;;;;;;;5.25;3.00;;;;;7.40;82.99;99615.19;5074608;27;45204;-65
2024/02/25 01:17:06;;;;;;;;;6.50;3.00;;;;;7.44;83.13;99621.13;5076577;28;45969;-66
2024/02/25 01:19:31;;;;;;;;;3.00;3.00;;;;;7.48;83.20;99616.69;5077272;27;45397;-66
2024/02/25 01:21:57;;;;;;;;;3.50;2.00;;;;;7.51;83.24;99609.63;5059517;27;69808;-63
2024/02/25 01:24:22;;;;;;;;;2.00;2.00;;;;;7.54;83.18;99604.34;5074328;28;71597;-66
2024/02/25 01:26:47;;;;;;;;;4.25;2.00;;;;;7.58;83.33;99605.06;5061748;28;74521;-66
2024/02/25 01:29:13;;;;;;;;;3.25;2.50;;;;;7.60;82.92;99613.69;5073872;28;45428;-65
2024/02/25 01:31:45;;;;;;;;;4.00;2.00;;;;;7.58;82.99;99605.06;5068646;27;69194;-65
2024/02/25 01:34:11;;;;;;;;;8.00;1.75;;;;;7.56;82.92;99602.53;5079031;27;45451;-65
2024/02/25 01:36:38;;;;;;;;;3.25;3.00;;;;;7.56;82.84;99593.84;5078626;27;45318;-65
2024/02/25 01:39:03;;;;;;;;;3.50;2.00;;;;;7.58;83.12;99595.50;5064250;27;45368;-66
2024/02/25 01:41:28;;;;;;;;;4.00;2.75;;;;;7.62;82.90;99601.47;5070144;27;45438;-65
2024/02/25 01:43:54;;;;;;;;;5.75;3.00;;;;;7.66;83.12;99592.63;5078098;27;50833;-65
2024/02/25 01:46:19;;;;;;;;;3.50;3.00;;;;;7.70;83.05;99598.59;5083519;27;45473;-65
2024/02/25 01:48:50;;;;;;;;;3.25;1.50;;;;;7.73;82.88;99594.13;5081683;27;73301;-65
2024/02/25 01:51:17;;;;;;;;;3.50;2.00;;;;;7.77;82.65;99592.28;5074585;27;45270;-66
2024/02/25 01:53:44;;;;;;;;;2.75;1.25;;;;;7.79;82.56;99593.94;5067161;27;45287;-66
2024/02/25 01:56:09;;;;;;;;;3.00;2.75;;;;;7.79;82.70;99593.06;5068478;27;45470;-66
2024/02/25 01:58:35;;;;;;;;;2.00;2.00;;;;;7.79;82.43;99593.06;5066801;27;72310;-65
2024/02/25 02:01:00;;;;;;;;;4.25;2.75;;;;;7.80;82.27;99586.97;5078782;28;52808;-65
2024/02/25 02:03:25;;;;;;;;;3.25;2.25;;;;;7.80;82.19;99593.03;5097174;27;71988;-65
2024/02/25 02:05:51;;;;;;;;;3.00;2.00;;;;;7.80;82.08;99587.81;5080204;27;75308;-65
2024/02/25 02:08:17;;;;;;;;;4.00;2.00;;;;;7.78;82.34;99587.00;5077909;27;63841;-65
2024/02/25 02:10:42;;;;;;;;;1.25;1.00;;;;;7.77;82.06;99589.66;5071299;28;45379;-65
2024/02/25 02:13:08;;;;;;;;;2.75;1.00;;;;;7.74;82.10;99587.19;5068596;27;45532;-65
2024/02/25 02:15:33;;;;;;;;;1.00;1.00;;;;;7.70;82.07;99583.84;5073886;27;75571;-65
2024/02/25 02:17:59;;;;;;;;;3.50;2.25;;;;;7.67;82.03;99581.34;5079583;27;45168;-66
2024/02/25 02:20:25;;;;;;;;;5.00;2.00;;;;;7.64;82.10;99584.03;5070223;27;45292;-65
2024/02/25 02:22:51;;;;;;;;;0.75;0.75;;;;;7.60;82.17;99575.47;5074413;27;45510;-65
2024/02/25 02:25:16;;;;;;;;;3.25;2.25;;;;;7.56;82.30;99576.50;5077956;27;46086;-65
2024/02/25 02:27:43;;;;;;;;;2.00;2.00;;;;;7.54;82.21;99577.41;5077848;27;45521;-65
2024/02/25 02:30:09;;;;;;;;;1.50;1.50;;;;;7.51;82.16;99569.75;5061857;27;45392;-65
2024/02/25 02:32:35;;;;;;;;;4.50;2.00;;;;;7.49;82.56;99563.69;5077878;27;45476;-65
2024/02/25 02:35:02;;;;;;;;;2.25;2.25;;;;;7.47;82.43;99569.00;5082162;28;46280;-65
2024/02/25 02:37:28;;;;;;;;;4.25;2.75;;;;;7.48;82.55;99564.63;5080631;27;45351;-65
2024/02/25 02:39:53;;;;;;;;;5.00;3.00;;;;;7.46;82.55;99567.28;5078902;27;45316;-64
2024/02/25 02:42:18;;;;;;;;;3.25;1.25;;;;;7.44;82.59;99563.88;5080732;27;72425;-65
2024/02/25 02:44:48;;;;;;;;;4.25;2.25;;;;;7.41;82.75;99567.41;5072641;28;75220;-64
2024/02/25 02:47:15;;;;;;;;;2.75;2.00;;;;;7.40;82.87;99572.66;5067135;27;45390;-64
2024/02/25 02:49:41;;;;;;;;;3.25;3.00;;;;;7.39;83.16;99571.81;5073083;28;45417;-65
2024/02/25 02:52:06;;;;;;;;;5.00;2.00;;;;;7.37;83.01;99568.44;5065147;27;45343;-64
2024/02/25 02:54:32;;;;;;;;;5.00;2.50;;;;;7.40;83.11;99567.47;5074703;27;56059;-64
2024/02/25 02:56:57;;;;;;;;;4.00;3.00;;;;;7.42;83.19;99557.88;5068693;27;66143;-64
2024/02/25 02:59:22;;;;;;;;;3.00;3.00;;;;;7.42;82.92;99557.88;5067946;27;69322;-65
2024/02/25 03:01:51;;;;;;;;;3.25;3.00;;;;;7.41;82.99;99549.19;5080621;27;68509;-65
2024/02/25 03:04:17;;;;;;;;;1.75;1.75;;;;;7.45;83.35;99560.34;5074319;28;46473;-64
2024/02/25 03:06:42;;;;;;;;;2.00;1.25;;;;;7.49;83.16;99551.56;5072233;27;45699;-64
2024/02/25 03:09:08;;;;;;;;;4.00;2.00;;;;;7.51;83.10;99547.16;5073566;28;45560;-66
2024/02/25 03:11:33;;;;;;;;;3.50;2.00;;;;;7.53;82.99;99547.94;5065363;27;72792;-65
2024/02/25 03:14:00;;;;;;;;;6.25;3.00;;;;;7.56;82.79;99554.78;5064094;28;75544;-65
2024/02/25 03:16:25;;;;;;;;;5.25;3.00;;;;;7.56;82.73;99557.38;5076206;27;45979;-65
2024/02/25 03:18:50;;;;;;;;;3.25;2.25;;;;;7.55;82.38;99547.91;5090224;27;68835;-65
2024/02/25 03:21:15;;;;;;;;;2.50;2.50;;;;;7.51;82.57;99551.50;5075319;27;70084;-65
2024/02/25 03:23:41;;;;;;;;;4.50;2.25;;;;;7.48;82.73;99547.25;5078953;28;68332;-65
2024/02/25 03:26:16;;;;;;;;;4.50;2.00;;;;;7.47;82.73;99552.50;5066001;27;69449;-65
2024/02/25 03:28:41;;;;;;;;;3.00;2.00;;;;;7.47;82.72;99544.69;5074464;27;45342;-65
2024/02/25 03:31:06;;;;;;;;;5.00;4.00;;;;;7.46;82.74;99541.25;5073800;28;67781;-65
2024/02/25 03:33:32;;;;;;;;;4.50;3.25;;;;;7.48;83.03;99546.41;5059943;28;75583;-66
2024/02/25 03:35:57;;;;;;;;;3.00;2.25;;;;;7.49;82.79;99550.69;5064731;27;72224;-66
2024/02/25 03:38:22;;;;;;;;;7.00;3.00;;;;;7.48;82.85;99549.84;5070497;27;61284;-66
2024/02/25 03:40:48;;;;;;;;;2.75;2.00;;;;;7.50;82.97;99550.63;5065156;27;67897;-66
2024/02/25 03:43:14;;;;;;;;;3.50;2.00;;;;;7.53;82.69;99545.34;5059922;28;75423;-65
2024/02/25 03:45:41;;;;;;;;;2.00;2.00;;;;;7.53;82.51;99545.34;5061760;28;45894;-65
2024/02/25 03:48:06;;;;;;;;;4.75;2.25;;;;;7.55;82.59;99537.47;5071849;27;45517;-65
2024/02/25 03:50:32;;;;;;;;;4.75;3.00;;;;;7.56;82.38;99537.44;5079142;27;45443;-65
2024/02/25 03:52:57;;;;;;;;;4.00;3.00;;;;;7.56;82.20;99539.16;5061142;27;45984;-65
2024/02/25 03:55:23;;;;;;;;;2.00;2.00;;;;;7.57;81.97;99539.13;5063934;28;71437;-66
2024/02/25 03:57:48;;;;;;;;;6.50;3.00;;;;;7.54;81.94;99536.66;5067517;27;45589;-66
2024/02/25 04:00:14;;;;;;;;;7.50;4.00;;;;;7.57;82.17;99533.06;5080588;27;58361;-65
2024/02/25 04:02:40;;;;;;;;;3.25;2.75;;;;;7.58;82.08;99535.63;5062172;28;45394;-66
2024/02/25 04:05:06;;;;;;;;;3.00;3.00;;;;;7.60;82.16;99535.56;5067993;28;45807;-66
2024/02/25 04:07:32;;;;;;;;;5.25;2.25;;;;;7.60;81.83;99541.63;5067801;28;45362;-66
2024/02/25 04:09:57;;;;;;;;;4.00;3.00;;;;;7.62;81.91;99543.34;5073895;27;45504;-66
2024/02/25 04:12:22;;;;;;;;;6.00;3.00;;;;;7.63;81.55;99535.44;5070924;27;54933;-66
2024/02/25 04:14:48;;;;;;;;;6.75;3.00;;;;;7.64;81.78;99537.16;5073745;28;64156;-65
2024/02/25 04:17:13;;;;;;;;;3.50;3.00;;;;;7.65;81.83;99531.06;5060660;28;65744;-65
2024/02/25 04:19:39;;;;;;;;;8.50;3.00;;;;;7.66;81.65;99535.34;5074928;27;45367;-65
2024/02/25 04:22:04;;;;;;;;;4.25;2.75;;;;;7.69;81.78;99544.81;5079537;27;73991;-66
2024/02/25 04:24:29;;;;;;;;;4.50;3.00;;;;;7.71;81.60;99530.00;5076850;27;58663;-65
2024/02/25 04:26:55;;;;;;;;;6.50;3.25;;;;;7.72;81.59;99534.28;5078429;28;59017;-66
2024/02/25 04:29:20;;;;;;;;;5.00;3.00;;;;;7.72;81.82;99544.69;5076005;27;68264;-66
2024/02/25 04:31:48;;;;;;;;;4.50;3.50;;;;;7.71;81.39;99533.44;5067195;27;71986;-65
2024/02/25 04:34:15;;;;;;;;;4.00;3.75;;;;;7.71;81.36;99540.41;5077449;27;45327;-65
2024/02/25 04:36:40;;;;;;;;;4.50;4.50;;;;;7.70;81.43;99547.38;5068784;28;45387;-65
2024/02/25 04:39:05;;;;;;;;;3.50;2.00;;;;;7.69;81.23;99545.66;5072537;27;45366;-65
2024/02/25 04:41:31;;;;;;;;;9.50;3.00;;;;;7.67;81.01;99549.25;5069507;28;68596;-65
2024/02/25 04:43:57;;;;;;;;;8.00;3.25;;;;;7.60;80.73;99551.19;5075946;27;45853;-65
2024/02/25 04:46:22;;;;;;;;;5.00;3.00;;;;;7.57;81.13;99564.31;5069374;28;45380;-66
2024/02/25 04:48:49;;;;;;;;;6.00;3.00;;;;;7.55;81.14;99556.53;5073203;27;60864;-66
2024/02/25 04:51:14;;;;;;;;;3.00;3.00;;;;;7.58;81.02;99566.88;5063706;28;45377;-66
2024/02/25 04:53:40;;;;;;;;;4.25;3.00;;;;;7.58;81.30;99561.66;5072627;28;45256;-66
2024/02/25 04:56:06;;;;;;;;;11.00;7.00;;;;;7.58;81.27;99559.06;5069373;27;45281;-66
2024/02/25 04:58:31;;;;;;;;;26.25;15.75;;;;;7.59;81.33;99554.69;5069684;28;45307;-66
2024/02/25 05:00:56;;;;;;;;;5.50;5.50;;;;;7.58;80.98;99547.81;5069478;28;58557;-65
2024/02/25 05:03:22;;;;;;;;;3.75;3.25;;;;;7.56;81.06;99547.84;5080122;28;45211;-65
2024/02/25 05:05:48;;;;;;;;;3.00;2.00;;;;;7.56;80.94;99545.25;5077277;28;45475;-64
2024/02/25 05:08:13;;;;;;;;;3.25;2.25;;;;;7.54;80.83;99541.84;5074511;27;45278;-65
2024/02/25 05:10:39;;;;;;;;;3.25;3.00;;;;;7.55;80.94;99532.28;5061703;28;46085;-65
2024/02/25 05:13:08;;;;;;;;;4.00;2.00;;;;;7.55;80.92;99538.31;5068639;27;73230;-65
2024/02/25 05:15:34;;;;;;;;;2.50;2.00;;;;;7.56;80.99;99533.97;5071237;27;45361;-64
2024/02/25 05:18:00;;;;;;;;;4.00;2.25;;;;;7.58;80.95;99540.00;5078370;27;45413;-66
2024/02/25 05:20:26;;;;;;;;;4.00;2.00;;;;;7.56;80.87;99537.44;5072404;27;46290;-66
2024/02/25 05:22:52;;;;;;;;;2.50;2.50;;;;;7.56;80.78;99539.16;5063821;27;45377;-65
2024/02/25 05:25:17;;;;;;;;;7.25;2.50;;;;;7.56;80.88;99544.38;5069334;28;45530;-65
2024/02/25 05:27:43;;;;;;;;;2.25;2.00;;;;;7.57;81.21;99544.31;5076691;27;61677;-65
2024/02/25 05:30:09;;;;;;;;;2.50;2.00;;;;;7.58;81.27;99545.19;5072140;28;45621;-65
2024/02/25 05:32:37;;;;;;;;;0.00;0.00;;;;;7.60;81.24;99540.78;5075756;28;45295;-66
2024/02/25 05:35:05;;;;;;;;;3.00;2.75;;;;;7.62;80.97;99538.13;5078566;28;45472;-65
2024/02/25 05:37:30;;;;;;;;;3.00;2.00;;;;;7.60;81.07;99538.19;5077212;27;45500;-65
2024/02/25 05:39:55;;;;;;;;;4.50;3.00;;;;;7.58;81.24;99543.44;5060516;28;50923;-65
2024/02/25 05:42:21;;;;;;;;;4.75;3.00;;;;;7.57;81.28;99541.72;5063437;28;72480;-66
2024/02/25 05:44:47;;;;;;;;;3.00;3.00;;;;;7.57;81.57;99552.13;5078837;27;65178;-66
2024/02/25 05:47:13;;;;;;;;;5.25;3.00;;;;;7.60;81.71;99543.38;5065371;27;45284;-66
2024/02/25 05:49:38;;;;;;;;;5.50;3.00;;;;;7.58;81.69;99546.03;5078507;27;71762;-66
2024/02/25 05:52:03;;;;;;;;;3.50;3.00;;;;;7.58;82.23;99546.03;5062658;27;73066;-66
2024/02/25 05:54:29;;;;;;;;;6.00;3.00;;;;;7.58;82.22;99543.44;5070028;28;69322;-66
2024/02/25 05:56:54;;;;;;;;;5.50;4.75;;;;;7.61;82.43;99542.47;5065836;27;45429;-66
2024/02/25 05:59:19;;;;;;;;;7.25;3.00;;;;;7.62;82.25;99543.34;5077658;27;50089;-66
2024/02/25 06:01:48;;;;;;;;;3.50;3.00;;;;;7.61;82.42;99545.06;5079297;27;45272;-66
2024/02/25 06:04:15;;;;;;;;;7.00;3.75;;;;;7.61;82.51;99542.47;5071379;28;45283;-66
2024/02/25 06:06:42;;;;;;;;;7.00;4.25;;;;;7.60;82.67;99533.81;5072521;27;45158;-65
2024/02/25 06:09:10;;;;;;;;;3.00;2.50;;;;;7.62;83.01;99538.13;5071438;27;45407;-65
2024/02/25 06:11:35;;;;;;;;;5.75;3.25;;;;;7.63;83.09;99537.22;5062123;28;45373;-65
2024/02/25 06:14:00;;;;;;;;;11.75;4.00;;;;;7.64;83.27;99525.91;5059669;28;67886;-65
2024/02/25 06:16:32;;;;;;;;;6.00;3.75;;;;;7.66;83.27;99524.09;5064824;27;71940;-64
2024/02/25 06:18:57;;;;;;;;;7.00;4.50;;;;;7.69;83.61;99521.41;5062212;28;47155;-65
2024/02/25 06:21:22;;;;;;;;;8.50;4.50;;;;;7.71;83.41;99527.41;5066616;28;58553;-64
2024/02/25 06:23:48;;;;;;;;;4.00;4.00;;;;;7.70;83.65;99513.53;5062132;28;45283;-65
2024/02/25 06:26:13;;;;;;;;;9.50;4.00;;;;;7.73;83.59;99509.97;5068044;27;58260;-64
2024/02/25 06:28:38;;;;;;;;;5.50;3.50;;;;;7.75;83.84;99508.97;5079263;27;45343;-66
2024/02/25 06:31:04;;;;;;;;;3.25;3.25;;;;;7.75;83.72;99514.19;5066968;27;72766;-65
2024/02/25 06:33:29;;;;;;;;;5.00;4.00;;;;;7.78;84.16;99516.69;5071327;27;68281;-65
2024/02/25 06:35:54;;;;;;;;;7.50;3.50;;;;;7.82;84.09;99512.22;5077636;27;72316;-66
2024/02/25 06:38:20;;;;;;;;;5.00;3.50;;;;;7.85;84.29;99511.28;5080957;27;51347;-65
2024/02/25 06:40:46;;;;;;;;;11.00;4.00;;;;;7.86;84.10;99510.38;5079754;27;59346;-66
2024/02/25 06:43:12;;;;;;;;;4.25;4.00;;;;;7.85;84.19;99496.50;5082203;27;45308;-66
2024/02/25 06:45:38;;;;;;;;;3.75;3.75;;;;;7.87;84.21;99502.50;5078550;27;45268;-66
2024/02/25 06:48:03;;;;;;;;;5.00;4.00;;;;;7.88;84.50;99508.56;5070917;27;45491;-66
2024/02/25 06:50:29;;;;;;;;;4.50;3.00;;;;;7.91;84.50;99506.69;5077315;28;45314;-66
2024/02/25 06:52:54;;;;;;;;;4.75;3.75;;;;;7.92;84.68;99507.56;5070855;28;45457;-66
2024/02/25 06:55:19;;;;;;;;;8.00;4.00;;;;;7.97;84.84;99505.66;5065958;27;45260;-65
2024/02/25 06:57:45;;;;;;;;;10.00;4.00;;;;;7.97;84.65;99498.66;5079661;27;72372;-66
2024/02/25 07:00:11;;;;;;;;;6.00;6.00;;;;;7.99;84.61;99491.66;5073193;27;71402;-65
2024/02/25 07:02:36;;;;;;;;;4.75;4.00;;;;;8.00;84.84;99492.47;5076161;27;45630;-66
2024/02/25 07:05:03;;;;;;;;;6.50;3.25;;;;;8.03;84.98;99492.38;5070239;27;45432;-66
2024/02/25 07:07:28;;;;;;;;;5.50;3.50;;;;;8.04;84.62;99488.00;5064632;28;45541;-65
2024/02/25 07:09:57;;;;;;;;;3.00;3.00;;;;;8.05;84.83;99487.13;5065687;27;45394;-65
2024/02/25 07:12:22;;;;;;;;;6.25;2.00;;;;;8.04;84.96;99486.28;5072465;28;45421;-65
2024/02/25 07:14:47;;;;;;;;;9.00;3.25;;;;;8.06;84.86;99486.22;5073601;27;73429;-65
2024/02/25 07:17:13;;;;;;;;;5.00;4.00;;;;;8.07;85.05;99483.53;5074868;28;46279;-65
2024/02/25 07:19:43;;;;;;;;;4.00;2.50;;;;;8.09;85.25;99479.13;5064298;27;45298;-65
2024/02/25 07:22:08;;;;;;;;;4.00;2.25;;;;;8.14;84.83;99485.03;5081568;27;45493;-65
2024/02/25 07:24:34;;;;;;;;;4.50;3.00;;;;;8.16;84.93;99472.78;5073423;27;71315;-65
2024/02/25 07:26:59;;;;;;;;;4.25;2.50;;;;;8.18;84.77;99470.97;5079773;27;74573;-65
2024/02/25 07:29:24;;;;;;;;;4.00;2.00;;;;;8.21;85.06;99466.56;5075224;27;73278;-65
2024/02/25 07:31:51;;;;;;;;;5.00;2.00;;;;;8.24;84.77;99471.66;5070246;28;61942;-66
2024/02/25 07:34:16;;;;;;;;;3.50;2.00;;;;;8.22;84.71;99460.44;5073004;27;45656;-65
2024/02/25 07:36:42;;;;;;;;;2.75;2.75;;;;;8.28;84.97;99474.06;5077048;27;56076;-66
2024/02/25 07:39:07;;;;;;;;;5.25;1.75;;;;;8.31;84.81;99466.13;5065693;27;45379;-66
2024/02/25 07:41:34;;;;;;;;;3.50;1.75;;;;;8.33;84.95;99464.31;5080957;27;45286;-66
2024/02/25 07:43:59;;;;;;;;;4.75;1.75;;;;;8.38;84.76;99458.09;5075393;28;69974;-66
2024/02/25 07:46:27;;;;;;;;;2.25;2.25;;;;;8.42;84.91;99454.47;5062480;28;45204;-65
2024/02/25 07:48:52;;;;;;;;;1.75;1.00;;;;;8.47;84.56;99452.56;5074158;27;45285;-65
2024/02/25 07:51:17;;;;;;;;;4.25;2.00;;;;;8.48;84.59;99452.50;5065552;28;45259;-66
2024/02/25 07:53:45;;;;;;;;;3.50;2.00;;;;;8.53;84.35;99449.69;5072511;27;54081;-66
2024/02/25 07:56:20;;;;;;;;;2.25;2.00;;;;;8.54;84.23;99446.19;5062390;28;45392;-66
2024/02/25 07:58:45;;;;;;;;;3.50;2.00;;;;;8.54;84.32;99448.81;5079560;27;45410;-66
2024/02/25 08:01:10;;;;;;;;;2.75;2.75;;;;;8.58;84.22;99445.16;5067501;27;45260;-66
2024/02/25 08:03:36;;;;;;;;;4.00;3.25;;;;;8.61;84.00;99449.41;5073798;28;72239;-66
2024/02/25 08:06:01;;;;;;;;;5.25;3.00;;;;;8.63;84.14;99448.44;5064649;28;48570;-65
2024/02/25 08:08:27;;;;;;;;;6.50;5.00;;;;;8.66;83.69;99450.94;5077706;28;45376;-65
2024/02/25 08:10:52;;;;;;;;;6.75;3.25;;;;;8.69;83.75;99437.78;5066372;28;67293;-65
2024/02/25 08:13:17;;;;;;;;;6.00;3.00;;;;;8.72;83.65;99440.22;5077384;28;45365;-65
2024/02/25 08:15:43;;;;;;;;;3.00;3.00;;;;;8.73;83.74;99435.88;5069415;27;69175;-66
2024/02/25 08:18:08;;;;;;;;;4.75;3.25;;;;;8.76;83.47;99443.56;5075473;27;45444;-65
2024/02/25 08:20:33;;;;;;;;;3.50;2.75;;;;;8.78;83.30;99444.34;5073061;27;69341;-65
2024/02/25 08:22:59;;;;;;;;;7.25;3.50;;;;;8.82;83.57;99435.50;5078594;27;45529;-72
2024/02/25 08:25:24;;;;;;;;;4.00;3.50;;;;;8.86;83.18;99431.00;5077034;27;74035;-65
2024/02/25 08:27:49;;;;;;;;;9.25;5.00;;;;;8.89;82.97;99428.28;5071714;27;71414;-64
2024/02/25 08:30:15;;;;;;;;;7.25;5.75;;;;;8.92;83.24;99433.34;5073588;27;46057;-64
2024/02/25 08:32:40;;;;;;;;;6.25;3.50;;;;;8.98;82.92;99429.63;5064133;28;45382;-65
2024/02/25 08:35:07;;;;;;;;;7.00;3.50;;;;;8.99;82.85;99421.75;5067312;27;46969;-65
2024/02/25 08:37:32;;;;;;;;;5.00;3.75;;;;;9.03;82.91;99420.72;5073723;28;45271;-63
2024/02/25 08:39:57;;;;;;;;;8.00;4.75;;;;;9.06;82.94;99415.34;5075212;27;66467;-63
2024/02/25 08:42:23;;;;;;;;;6.25;3.25;;;;;9.10;82.55;99410.84;5073859;28;45274;-63
2024/02/25 08:44:49;;;;;;;;;3.25;2.00;;;;;9.12;82.66;99414.28;5063192;27;46110;-63
2024/02/25 08:47:14;;;;;;;;;4.50;4.00;;;;;9.12;82.39;99415.13;5067842;28;45489;-64
2024/02/25 08:49:40;;;;;;;;;3.25;1.50;;;;;9.15;82.55;99421.13;5070702;27;63737;-63
2024/02/25 08:52:06;;;;;;;;;6.25;3.25;;;;;9.17;82.41;99408.84;5065394;28;45270;-63
2024/02/25 08:54:31;;;;;;;;;3.25;2.50;;;;;9.19;82.02;99410.50;5068258;28;46434;-62
2024/02/25 08:56:57;;;;;;;;;3.50;2.50;;;;;9.22;82.19;99405.13;5059717;28;45410;-62
2024/02/25 08:59:23;;;;;;;;;5.50;4.25;;;;;9.25;81.98;99415.44;5071496;28;45300;-62
2024/02/25 09:01:48;;;;;;;;;2.50;2.00;;;;;9.27;81.69;99408.38;5073156;28;45308;-63
2024/02/25 09:04:14;;;;;;;;;6.00;3.00;;;;;9.29;81.65;99408.31;5062717;28;46079;-62
2024/02/25 09:06:39;;;;;;;;;2.50;1.00;;;;;9.32;81.32;99416.03;5059441;28;45431;-64
2024/02/25 09:09:05;;;;;;;;;2.00;2.00;;;;;9.34;81.57;99413.34;5064477;28;45372;-62
2024/02/25 09:11:31;;;;;;;;;1.75;1.25;;;;;9.38;81.18;99407.06;5069091;28;45680;-62
2024/02/25 09:13:56;;;;;;;;;2.00;2.00;;;;;9.40;81.08;99403.50;5071053;28;45313;-62
2024/02/25 09:16:21;;;;;;;;;3.25;2.00;;;;;9.45;81.04;99401.50;5065806;28;73223;-62
2024/02/25 09:18:48;;;;;;;;;1.00;1.00;;;;;9.50;80.86;99390.88;5060030;28;45505;-63
2024/02/25 09:21:13;;;;;;;;;2.00;2.00;;;;;9.55;80.66;99390.69;5069915;28;45280;-63
2024/02/25 09:23:39;;;;;;;;;2.00;1.50;;;;;9.58;80.17;99391.41;5061164;28;64088;-63
2024/02/25 09:26:07;;;;;;;;;4.75;3.50;;;;;9.61;80.09;99377.34;5058447;28;71636;-64
2024/02/25 09:28:33;;;;;;;;;3.50;2.50;;;;;9.61;80.00;99378.16;5062102;28;45320;-62
2024/02/25 09:30:58;;;;;;;;;3.00;1.75;;;;;9.63;79.79;99378.09;5071560;28;45505;-63
2024/02/25 09:33:26;;;;;;;;;2.25;2.25;;;;;9.64;79.84;99382.44;5067300;28;55410;-64
2024/02/25 09:35:51;;;;;;;;;6.25;3.25;;;;;9.65;79.94;99363.22;5067974;27;45480;-62
2024/02/25 09:38:16;;;;;;;;;4.50;3.75;;;;;9.68;79.59;99374.41;5069426;28;66607;-64
2024/02/25 09:40:43;;;;;;;;;4.00;2.00;;;;;9.72;79.29;99361.19;5078005;27;61332;-64
2024/02/25 09:43:15;;;;;;;;;3.75;2.00;;;;;9.74;79.26;99354.97;5071919;27;45494;-68
2024/02/25 09:45:41;;;;;;;;;2.00;1.75;;;;;9.77;79.21;99356.59;5068683;27;45470;-66
2024/02/25 09:48:10;;;;;;;;;3.00;2.75;;;;;9.82;79.49;99357.22;5072540;27;45299;-65
2024/02/25 09:50:36;;;;;;;;;6.00;2.75;;;;;9.87;79.12;99357.88;5069235;27;45476;-64
2024/02/25 09:53:02;;;;;;;;;2.00;2.00;;;;;9.89;78.68;99351.63;5072402;28;46649;-64
2024/02/25 09:55:28;;;;;;;;;5.00;2.75;;;;;9.94;78.93;99345.38;5071299;28;45333;-64
2024/02/25 09:57:53;;;;;;;;;2.00;2.00;;;;;9.94;78.27;99338.38;5078861;28;45319;-64
2024/02/25 10:00:20;;;;;;;;;2.75;2.75;;;;;9.94;78.28;99329.69;5063783;28;45422;-63
2024/02/25 10:02:45;;;;;;;;;2.25;2.00;;;;;9.94;78.47;99327.06;5075414;28;46327;-64
2024/02/25 10:05:14;;;;;;;;;6.00;2.00;;;;;9.98;78.30;99326.00;5073652;28;45406;-64
2024/02/25 10:07:40;;;;;;;;;2.75;2.75;;;;;10.02;78.55;99323.19;5076136;28;45666;-64
2024/02/25 10:10:06;;;;;;;;;4.50;2.75;;;;;10.03;78.10;99313.56;5065977;28;45335;-64
2024/02/25 10:12:31;;;;;;;;;5.00;3.00;;;;;10.03;78.48;99318.78;5074253;28;47095;-64
2024/02/25 10:14:56;;;;;;;;;5.00;3.00;;;;;10.04;78.32;99308.28;5067409;28;45360;-64
2024/02/25 10:17:23;;;;;;;;;3.00;3.00;;;;;10.09;78.27;99302.81;5072193;28;45323;-63
2024/02/25 10:19:55;;;;;;;;;2.75;2.00;;;;;10.11;77.93;99302.75;5073360;28;45364;-63
2024/02/25 10:22:23;;;;;;;;;6.50;4.25;;;;;10.11;77.72;99292.28;5063462;27;45363;-63
2024/02/25 10:24:48;;;;;;;;;6.00;3.00;;;;;10.13;78.42;99290.44;5066263;28;45775;-64
2024/02/25 10:27:14;;;;;;;;;3.25;3.25;;;;;10.14;78.07;99292.13;5063590;28;45814;-62
2024/02/25 10:29:54;;;;;;;;;2.00;2.00;;;;;10.16;77.80;99287.69;5063568;28;45589;-62
2024/02/25 10:32:26;;;;;;;;;1.50;1.00;;;;;10.18;77.87;99286.69;5062620;28;47399;-62
2024/02/25 10:34:53;;;;;;;;;3.75;3.00;;;;;10.22;77.74;99277.78;5079408;28;45342;-63
2024/02/25 10:37:21;;;;;;;;;5.25;2.25;;;;;10.30;78.34;99266.09;5066832;28;45263;-62
2024/02/25 10:39:48;;;;;;;;;4.00;2.25;;;;;10.40;77.64;99257.75;5075771;28;45322;-61
2024/02/25 10:42:14;;;;;;;;;2.50;1.75;;;;;10.47;77.40;99252.22;5079908;28;45637;-61
2024/02/25 10:44:41;;;;;;;;;3.00;2.75;;;;;10.54;76.94;99254.44;5066494;28;68582;-63
2024/02/25 10:47:08;;;;;;;;;5.50;3.25;;;;;10.63;77.09;99253.97;5073402;28;45369;-61
2024/02/25 10:49:35;;;;;;;;;5.50;3.00;;;;;10.70;76.68;99254.50;5061563;28;45254;-61
2024/02/25 10:52:03;;;;;;;;;4.00;2.00;;;;;10.77;76.38;99245.41;5064384;28;74259;-64
2024/02/25 10:54:29;;;;;;;;;3.00;2.25;;;;;10.81;76.17;99249.56;5056690;28;46140;-63
2024/02/25 10:56:56;;;;;;;;;3.25;2.00;;;;;10.87;76.21;99239.69;5077488;28;52955;-65
2024/02/25 10:59:23;;;;;;;;;2.00;2.00;;;;;10.90;75.44;99237.75;5072986;28;45446;-63
2024/02/25 11:01:50;;;;;;;;;3.50;2.00;;;;;10.91;75.32;99239.47;5060616;28;49361;-63
2024/02/25 11:04:17;;;;;;;;;2.75;1.75;;;;;10.94;74.95;99222.75;5062471;27;45314;-63
2024/02/25 11:06:43;;;;;;;;;3.00;3.00;;;;;10.99;74.68;99218.94;5065787;28;45547;-64
2024/02/25 11:09:12;;;;;;;;;4.25;3.00;;;;;11.08;75.06;99204.53;5074694;28;46742;-61
2024/02/25 11:11:39;;;;;;;;;6.00;3.00;;;;;11.15;74.36;99199.81;5064816;28;45340;-62
2024/02/25 11:14:11;;;;;;;;;2.00;2.00;;;;;11.21;73.73;99194.25;5061715;28;45449;-61
2024/02/25 11:16:37;;;;;;;;;5.00;2.25;;;;;11.23;73.51;99184.53;5066276;28;45304;-60
2024/02/25 11:19:02;;;;;;;;;2.00;1.00;;;;;11.33;73.48;99172.63;5070446;28;45894;-63
2024/02/25 11:21:30;;;;;;;;;5.00;2.00;;;;;11.42;73.19;99168.66;5065131;28;48495;-64
2024/02/25 11:23:56;;;;;;;;;11.75;8.75;;;;;11.48;72.96;99160.44;5078835;28;45367;-62
2024/02/25 11:26:33;;;;;;;;;9.50;6.00;;;;;11.56;72.64;99158.25;5075260;28;62230;-62
2024/02/25 11:29:21;;;;;;;;;2.00;2.00;;;;;11.64;72.20;99151.72;5073895;28;45240;-61
2024/02/25 11:31:50;;;;;;;;;4.00;2.50;;;;;11.66;72.16;99147.25;5075934;28;45302;-61
2024/02/25 11:34:23;;;;;;;;;1.50;1.50;;;;;11.67;71.66;99138.44;5069591;28;45728;-61
2024/02/25 11:36:53;;;;;;;;;2.75;2.00;;;;;11.68;71.17;99135.72;5075604;28;45196;-63